sensor_id;sensor_type;location;lat;lon;timestamp;temperature;humidity
18648;DHT22;9453;50.294;18.644;2023-06-22T04:03:10;20.20;99.90
18648;DHT22;9453;50.294;18.644;2023-06-22T04:05:38;20.20;99.90
18648;DHT22;9453;50.294;18.644;2023-06-22T04:08:05;20.20;99.90
18648;DHT22;9453;50.294;18.644;2023-06-22T04:10:32;20.30;99.90
18648;DHT22;9453;50.294;18.644;2023-06-22T04:12:59;20.30;99.90
18648;DHT22;9453;50.294;18.644;2023-06-22T04:15:26;20.40;99.90
18648;DHT22;9453;50.294;18.644;2023-06-22T04:17:54;20.40;99.90
18648;DHT22;9453;50.294;18.644;2023-06-22T04:20:24;20.40;99.90
18648;DHT22;9453;50.294;18.644;2023-06-22T04:22:52;20.40;99.90
18648;DHT22;9453;50.294;18.644;2023-06-22T04:25:19;20.50;99.90
18648;DHT22;9453;50.294;18.644;2023-06-22T04:27:47;20.50;99.90
18648;DHT22;9453;50.294;18.644;2023-06-22T04:30:14;20.60;99.90
18648;DHT22;9453;50.294;18.644;2023-06-22T04:32:42;20.60;99.90
18648;DHT22;9453;50.294;18.644;2023-06-22T04:35:09;20.70;99.90
18648;DHT22;9453;50.294;18.644;2023-06-22T04:37:38;20.70;99.90
18648;DHT22;9453;50.294;18.644;2023-06-22T04:40:07;20.70;99.90
18648;DHT22;9453;50.294;18.644;2023-06-22T04:42:35;20.80;99.90
18648;DHT22;9453;50.294;18.644;2023-06-22T04:45:03;20.80;99.90
18648;DHT22;9453;50.294;18.644;2023-06-22T04:47:30;21.00;99.90
18648;DHT22;9453;50.294;18.644;2023-06-22T04:49:57;21.10;99.90
18648;DHT22;9453;50.294;18.644;2023-06-22T04:52:24;21.20;99.90
18648;DHT22;9453;50.294;18.644;2023-06-22T04:54:53;21.40;99.90
18648;DHT22;9453;50.294;18.644;2023-06-22T04:57:25;21.70;99.90
18648;DHT22;9453;50.294;18.644;2023-06-22T04:59:57;21.70;99.90
18648;DHT22;9453;50.294;18.644;2023-06-22T05:02:32;21.90;99.90
18648;DHT22;9453;50.294;18.644;2023-06-22T05:04:59;22.00;99.90
18648;DHT22;9453;50.294;18.644;2023-06-22T05:07:32;22.00;99.90
18648;DHT22;9453;50.294;18.644;2023-06-22T05:10:01;22.10;99.90
18648;DHT22;9453;50.294;18.644;2023-06-22T05:12:28;22.00;99.90
18648;DHT22;9453;50.294;18.644;2023-06-22T05:18:10;22.10;99.90
18648;DHT22;9453;50.294;18.644;2023-06-22T05:20:42;22.20;99.90
18648;DHT22;9453;50.294;18.644;2023-06-22T05:23:11;22.20;99.90
18648;DHT22;9453;50.294;18.644;2023-06-22T05:25:39;22.20;99.90
18648;DHT22;9453;50.294;18.644;2023-06-22T05:28:07;22.20;99.90
18648;DHT22;9453;50.294;18.644;2023-06-22T05:30:37;22.20;99.90
18648;DHT22;9453;50.294;18.644;2023-06-22T05:33:04;22.30;99.90
18648;DHT22;9453;50.294;18.644;2023-06-22T05:35:31;22.30;99.90
18648;DHT22;9453;50.294;18.644;2023-06-22T05:37:58;22.40;99.90
18648;DHT22;9453;50.294;18.644;2023-06-22T05:40:25;22.50;99.90
18648;DHT22;9453;50.294;18.644;2023-06-22T05:42:54;22.60;99.90
18648;DHT22;9453;50.294;18.644;2023-06-22T05:45:21;22.70;99.90
18648;DHT22;9453;50.294;18.644;2023-06-22T05:47:48;22.70;99.90
18648;DHT22;9453;50.294;18.644;2023-06-22T05:50:15;22.80;99.90
18648;DHT22;9453;50.294;18.644;2023-06-22T05:52:42;22.80;99.90
18648;DHT22;9453;50.294;18.644;2023-06-22T05:55:09;22.90;99.90
18648;DHT22;9453;50.294;18.644;2023-06-22T05:57:36;23.00;99.90
18648;DHT22;9453;50.294;18.644;2023-06-22T06:00:07;22.80;99.90
18648;DHT22;9453;50.294;18.644;2023-06-22T06:02:36;22.70;99.90
18648;DHT22;9453;50.294;18.644;2023-06-22T06:05:09;22.70;99.90
18648;DHT22;9453;50.294;18.644;2023-06-22T06:07:37;22.80;99.90
18648;DHT22;9453;50.294;18.644;2023-06-22T06:10:04;22.90;99.90
18648;DHT22;9453;50.294;18.644;2023-06-22T06:12:32;22.90;99.90
18648;DHT22;9453;50.294;18.644;2023-06-22T06:14:59;23.00;99.90
18648;DHT22;9453;50.294;18.644;2023-06-22T06:17:28;23.10;99.90
18648;DHT22;9453;50.294;18.644;2023-06-22T06:19:55;23.10;99.90
18648;DHT22;9453;50.294;18.644;2023-06-22T06:22:22;23.20;99.90
18648;DHT22;9453;50.294;18.644;2023-06-22T06:24:49;23.20;99.90
18648;DHT22;9453;50.294;18.644;2023-06-22T06:27:16;23.20;99.90
18648;DHT22;9453;50.294;18.644;2023-06-22T06:29:44;23.30;99.90
18648;DHT22;9453;50.294;18.644;2023-06-22T06:32:14;23.20;99.90
18648;DHT22;9453;50.294;18.644;2023-06-22T06:34:42;23.20;99.90
18648;DHT22;9453;50.294;18.644;2023-06-22T06:37:09;23.30;99.90
18648;DHT22;9453;50.294;18.644;2023-06-22T06:39:36;23.40;99.90
18648;DHT22;9453;50.294;18.644;2023-06-22T06:42:05;23.40;99.90
18648;DHT22;9453;50.294;18.644;2023-06-22T06:45:02;23.40;99.90
18648;DHT22;9453;50.294;18.644;2023-06-22T06:47:54;23.50;99.90
18648;DHT22;9453;50.294;18.644;2023-06-22T06:50:23;23.50;99.90
18648;DHT22;9453;50.294;18.644;2023-06-22T06:52:50;23.70;99.90
18648;DHT22;9453;50.294;18.644;2023-06-22T06:55:17;23.80;99.90
18648;DHT22;9453;50.294;18.644;2023-06-22T06:57:46;23.90;99.90
18648;DHT22;9453;50.294;18.644;2023-06-22T07:00:16;24.00;99.90
18648;DHT22;9453;50.294;18.644;2023-06-22T07:02:44;24.20;99.90
18648;DHT22;9453;50.294;18.644;2023-06-22T07:05:13;24.30;99.90
18648;DHT22;9453;50.294;18.644;2023-06-22T07:07:41;24.40;99.90
18648;DHT22;9453;50.294;18.644;2023-06-22T07:10:09;24.40;99.90
18648;DHT22;9453;50.294;18.644;2023-06-22T07:12:36;24.40;99.90
18648;DHT22;9453;50.294;18.644;2023-06-22T07:15:05;24.40;99.90
18648;DHT22;9453;50.294;18.644;2023-06-22T07:17:33;24.50;99.90
18648;DHT22;9453;50.294;18.644;2023-06-22T07:20:00;24.50;99.90
18648;DHT22;9453;50.294;18.644;2023-06-22T07:22:33;24.60;99.90
18648;DHT22;9453;50.294;18.644;2023-06-22T07:25:01;24.60;99.90
18648;DHT22;9453;50.294;18.644;2023-06-22T07:27:34;24.70;99.90
18648;DHT22;9453;50.294;18.644;2023-06-22T07:30:04;24.70;99.90
18648;DHT22;9453;50.294;18.644;2023-06-22T07:32:31;24.70;99.90
18648;DHT22;9453;50.294;18.644;2023-06-22T07:34:58;24.70;98.80
18648;DHT22;9453;50.294;18.644;2023-06-22T07:37:25;24.80;99.00
18648;DHT22;9453;50.294;18.644;2023-06-22T07:39:53;24.90;99.00
18648;DHT22;9453;50.294;18.644;2023-06-22T07:42:25;25.00;99.00
18648;DHT22;9453;50.294;18.644;2023-06-22T07:44:52;25.00;96.80
18648;DHT22;9453;50.294;18.644;2023-06-22T07:47:19;25.10;96.90
18648;DHT22;9453;50.294;18.644;2023-06-22T07:49:50;25.20;97.00
18648;DHT22;9453;50.294;18.644;2023-06-22T07:52:17;25.20;95.50
18648;DHT22;9453;50.294;18.644;2023-06-22T07:54:44;25.30;95.20
18648;DHT22;9453;50.294;18.644;2023-06-22T07:57:11;25.30;95.00
18648;DHT22;9453;50.294;18.644;2023-06-22T07:59:39;25.40;95.20
18648;DHT22;9453;50.294;18.644;2023-06-22T08:02:07;25.50;94.60
18648;DHT22;9453;50.294;18.644;2023-06-22T08:04:35;25.50;93.60
18648;DHT22;9453;50.294;18.644;2023-06-22T08:07:02;25.50;93.40
18648;DHT22;9453;50.294;18.644;2023-06-22T08:09:30;25.60;93.20
18648;DHT22;9453;50.294;18.644;2023-06-22T08:11:57;25.60;93.30
18648;DHT22;9453;50.294;18.644;2023-06-22T08:14:26;25.70;92.00
18648;DHT22;9453;50.294;18.644;2023-06-22T08:16:54;25.70;92.00
18648;DHT22;9453;50.294;18.644;2023-06-22T08:19:21;25.70;92.20
18648;DHT22;9453;50.294;18.644;2023-06-22T08:21:48;25.70;91.60
18648;DHT22;9453;50.294;18.644;2023-06-22T08:24:15;25.70;91.70
18648;DHT22;9453;50.294;18.644;2023-06-22T08:26:42;25.80;92.10
18648;DHT22;9453;50.294;18.644;2023-06-22T08:29:09;25.90;92.00
18648;DHT22;9453;50.294;18.644;2023-06-22T08:31:36;26.00;91.10
18648;DHT22;9453;50.294;18.644;2023-06-22T08:34:04;25.90;90.70
18648;DHT22;9453;50.294;18.644;2023-06-22T08:36:31;26.00;90.20
18648;DHT22;9453;50.294;18.644;2023-06-22T08:39:07;26.00;90.40
18648;DHT22;9453;50.294;18.644;2023-06-22T08:41:34;26.00;90.00
18648;DHT22;9453;50.294;18.644;2023-06-22T08:44:01;26.10;90.90
18648;DHT22;9453;50.294;18.644;2023-06-22T08:46:29;26.20;90.90
18648;DHT22;9453;50.294;18.644;2023-06-22T08:48:59;26.20;90.20
18648;DHT22;9453;50.294;18.644;2023-06-22T08:51:27;26.30;89.10
18648;DHT22;9453;50.294;18.644;2023-06-22T08:53:54;26.30;88.60
18648;DHT22;9453;50.294;18.644;2023-06-22T08:56:21;26.40;89.10
18648;DHT22;9453;50.294;18.644;2023-06-22T08:58:48;26.40;87.90
18648;DHT22;9453;50.294;18.644;2023-06-22T09:01:15;26.50;86.90
18648;DHT22;9453;50.294;18.644;2023-06-22T09:03:42;26.50;85.00
18648;DHT22;9453;50.294;18.644;2023-06-22T09:06:09;26.60;85.40
18648;DHT22;9453;50.294;18.644;2023-06-22T09:08:38;26.60;83.40
18648;DHT22;9453;50.294;18.644;2023-06-22T09:11:05;26.60;83.60
18648;DHT22;9453;50.294;18.644;2023-06-22T09:13:32;26.70;83.90
18648;DHT22;9453;50.294;18.644;2023-06-22T09:16:00;26.70;82.80
18648;DHT22;9453;50.294;18.644;2023-06-22T09:18:27;26.60;83.20
18648;DHT22;9453;50.294;18.644;2023-06-22T09:20:54;26.60;83.10
18648;DHT22;9453;50.294;18.644;2023-06-22T09:23:21;26.80;83.70
18648;DHT22;9453;50.294;18.644;2023-06-22T09:25:50;26.80;84.00
18648;DHT22;9453;50.294;18.644;2023-06-22T09:28:17;26.90;84.10
18648;DHT22;9453;50.294;18.644;2023-06-22T09:30:44;27.00;82.10
18648;DHT22;9453;50.294;18.644;2023-06-22T09:33:11;27.00;81.80
18648;DHT22;9453;50.294;18.644;2023-06-22T09:35:38;27.10;82.40
18648;DHT22;9453;50.294;18.644;2023-06-22T09:38:05;27.20;81.30
18648;DHT22;9453;50.294;18.644;2023-06-22T09:40:32;27.20;82.60
18648;DHT22;9453;50.294;18.644;2023-06-22T09:43:02;27.30;80.60
18648;DHT22;9453;50.294;18.644;2023-06-22T09:45:29;27.30;80.30
18648;DHT22;9453;50.294;18.644;2023-06-22T09:47:56;27.30;80.50
18648;DHT22;9453;50.294;18.644;2023-06-22T09:50:23;27.30;80.60
18648;DHT22;9453;50.294;18.644;2023-06-22T09:52:50;27.30;81.00
18648;DHT22;9453;50.294;18.644;2023-06-22T09:55:20;27.40;81.80
18648;DHT22;9453;50.294;18.644;2023-06-22T09:57:47;27.40;80.00
18648;DHT22;9453;50.294;18.644;2023-06-22T10:00:18;27.50;80.80
18648;DHT22;9453;50.294;18.644;2023-06-22T10:02:47;27.50;81.20
18648;DHT22;9453;50.294;18.644;2023-06-22T10:05:14;27.50;80.10
18648;DHT22;9453;50.294;18.644;2023-06-22T10:07:41;27.40;77.30
18648;DHT22;9453;50.294;18.644;2023-06-22T10:10:09;27.30;76.60
18648;DHT22;9453;50.294;18.644;2023-06-22T10:12:41;27.40;77.70
18648;DHT22;9453;50.294;18.644;2023-06-22T10:15:09;27.50;78.30
18648;DHT22;9453;50.294;18.644;2023-06-22T10:17:37;27.50;75.90
18648;DHT22;9453;50.294;18.644;2023-06-22T10:20:05;27.60;74.50
18648;DHT22;9453;50.294;18.644;2023-06-22T10:22:37;27.70;74.20
18648;DHT22;9453;50.294;18.644;2023-06-22T10:25:05;27.80;74.10
18648;DHT22;9453;50.294;18.644;2023-06-22T10:27:32;27.80;74.00
18648;DHT22;9453;50.294;18.644;2023-06-22T10:29:59;27.90;73.50
18648;DHT22;9453;50.294;18.644;2023-06-22T10:32:26;28.00;73.90
18648;DHT22;9453;50.294;18.644;2023-06-22T10:34:56;28.00;74.00
18648;DHT22;9453;50.294;18.644;2023-06-22T10:37:23;28.00;73.00
18648;DHT22;9453;50.294;18.644;2023-06-22T10:39:50;27.80;71.80
18648;DHT22;9453;50.294;18.644;2023-06-22T10:42:17;27.80;71.20
18648;DHT22;9453;50.294;18.644;2023-06-22T10:44:44;27.90;72.60
18648;DHT22;9453;50.294;18.644;2023-06-22T10:47:11;27.90;70.50
18648;DHT22;9453;50.294;18.644;2023-06-22T10:49:38;28.00;70.70
18648;DHT22;9453;50.294;18.644;2023-06-22T10:52:08;28.00;71.20
18648;DHT22;9453;50.294;18.644;2023-06-22T10:54:36;28.10;69.90
18648;DHT22;9453;50.294;18.644;2023-06-22T10:57:04;28.20;69.80
18648;DHT22;9453;50.294;18.644;2023-06-22T10:59:31;28.20;70.80
18648;DHT22;9453;50.294;18.644;2023-06-22T11:01:58;28.30;70.70
18648;DHT22;9453;50.294;18.644;2023-06-22T11:04:25;28.30;67.60
18648;DHT22;9453;50.294;18.644;2023-06-22T11:06:52;28.20;66.80
18648;DHT22;9453;50.294;18.644;2023-06-22T11:09:21;28.20;68.20
18648;DHT22;9453;50.294;18.644;2023-06-22T11:11:48;28.20;68.70
18648;DHT22;9453;50.294;18.644;2023-06-22T11:14:15;28.20;70.00
18648;DHT22;9453;50.294;18.644;2023-06-22T11:16:43;28.30;69.10
18648;DHT22;9453;50.294;18.644;2023-06-22T11:19:09;28.30;69.00
18648;DHT22;9453;50.294;18.644;2023-06-22T11:21:37;28.30;67.30
18648;DHT22;9453;50.294;18.644;2023-06-22T11:24:04;28.40;67.10
18648;DHT22;9453;50.294;18.644;2023-06-22T11:26:33;28.50;65.80
18648;DHT22;9453;50.294;18.644;2023-06-22T11:29:00;28.40;63.60
18648;DHT22;9453;50.294;18.644;2023-06-22T11:31:30;28.40;65.30
18648;DHT22;9453;50.294;18.644;2023-06-22T11:33:57;28.40;63.90
18648;DHT22;9453;50.294;18.644;2023-06-22T11:36:25;28.40;63.90
18648;DHT22;9453;50.294;18.644;2023-06-22T11:38:54;28.60;64.80
18648;DHT22;9453;50.294;18.644;2023-06-22T11:41:22;28.70;66.60
18648;DHT22;9453;50.294;18.644;2023-06-22T11:43:50;28.70;66.40
18648;DHT22;9453;50.294;18.644;2023-06-22T11:46:17;28.60;66.30
18648;DHT22;9453;50.294;18.644;2023-06-22T11:48:44;28.70;66.70
18648;DHT22;9453;50.294;18.644;2023-06-22T11:51:11;28.80;66.90
18648;DHT22;9453;50.294;18.644;2023-06-22T11:53:38;28.80;66.30
18648;DHT22;9453;50.294;18.644;2023-06-22T11:56:05;28.90;67.10
18648;DHT22;9453;50.294;18.644;2023-06-22T11:58:32;28.90;67.50
18648;DHT22;9453;50.294;18.644;2023-06-22T12:01:00;29.00;66.80
18648;DHT22;9453;50.294;18.644;2023-06-22T12:03:27;29.00;65.70
18648;DHT22;9453;50.294;18.644;2023-06-22T12:05:54;29.00;67.70
18648;DHT22;9453;50.294;18.644;2023-06-22T12:08:21;29.10;66.00
18648;DHT22;9453;50.294;18.644;2023-06-22T12:10:50;29.20;65.00
18648;DHT22;9453;50.294;18.644;2023-06-22T12:13:17;29.30;65.70
18648;DHT22;9453;50.294;18.644;2023-06-22T12:15:44;29.30;65.10
18648;DHT22;9453;50.294;18.644;2023-06-22T12:18:13;29.30;66.10
18648;DHT22;9453;50.294;18.644;2023-06-22T12:20:40;29.20;67.10
18648;DHT22;9453;50.294;18.644;2023-06-22T12:23:07;29.10;66.60
18648;DHT22;9453;50.294;18.644;2023-06-22T12:25:34;29.10;65.70
18648;DHT22;9453;50.294;18.644;2023-06-22T12:28:01;29.20;65.70
18648;DHT22;9453;50.294;18.644;2023-06-22T12:30:28;29.20;66.10
18648;DHT22;9453;50.294;18.644;2023-06-22T12:32:55;29.10;65.10
18648;DHT22;9453;50.294;18.644;2023-06-22T12:35:23;29.20;65.70
18648;DHT22;9453;50.294;18.644;2023-06-22T12:37:50;29.30;66.40
18648;DHT22;9453;50.294;18.644;2023-06-22T12:40:18;29.40;65.00
18648;DHT22;9453;50.294;18.644;2023-06-22T12:42:45;29.40;63.50
18648;DHT22;9453;50.294;18.644;2023-06-22T12:45:12;29.70;63.40
18648;DHT22;9453;50.294;18.644;2023-06-22T12:47:39;29.80;64.40
18648;DHT22;9453;50.294;18.644;2023-06-22T12:50:07;29.90;65.70
18648;DHT22;9453;50.294;18.644;2023-06-22T12:52:36;30.00;64.40
18648;DHT22;9453;50.294;18.644;2023-06-22T12:55:05;30.20;62.40
18648;DHT22;9453;50.294;18.644;2023-06-22T12:57:33;30.40;62.90
18648;DHT22;9453;50.294;18.644;2023-06-22T13:00:00;30.50;62.90
18648;DHT22;9453;50.294;18.644;2023-06-22T13:02:26;30.70;61.90
18648;DHT22;9453;50.294;18.644;2023-06-22T13:04:54;30.90;61.30
18648;DHT22;9453;50.294;18.644;2023-06-22T13:07:20;31.00;60.10
18648;DHT22;9453;50.294;18.644;2023-06-22T13:09:49;31.20;60.70
18648;DHT22;9453;50.294;18.644;2023-06-22T13:12:17;31.40;59.20
18648;DHT22;9453;50.294;18.644;2023-06-22T13:14:45;31.50;57.70
18648;DHT22;9453;50.294;18.644;2023-06-22T13:17:13;31.50;57.20
18648;DHT22;9453;50.294;18.644;2023-06-22T13:19:40;31.60;57.70
18648;DHT22;9453;50.294;18.644;2023-06-22T13:22:26;31.70;58.10
18648;DHT22;9453;50.294;18.644;2023-06-22T13:24:55;31.90;57.30
18648;DHT22;9453;50.294;18.644;2023-06-22T13:27:22;32.00;57.50
18648;DHT22;9453;50.294;18.644;2023-06-22T13:29:49;32.20;56.80
18648;DHT22;9453;50.294;18.644;2023-06-22T13:32:16;32.20;55.70
18648;DHT22;9453;50.294;18.644;2023-06-22T13:34:43;32.40;55.30
18648;DHT22;9453;50.294;18.644;2023-06-22T13:37:10;32.40;55.00
18648;DHT22;9453;50.294;18.644;2023-06-22T13:39:37;32.60;54.50
18648;DHT22;9453;50.294;18.644;2023-06-22T13:42:06;32.60;54.10
18648;DHT22;9453;50.294;18.644;2023-06-22T13:44:33;32.70;54.10
18648;DHT22;9453;50.294;18.644;2023-06-22T13:47:00;32.80;54.20
18648;DHT22;9453;50.294;18.644;2023-06-22T13:49:27;32.80;54.20
18648;DHT22;9453;50.294;18.644;2023-06-22T13:51:55;32.80;53.30
18648;DHT22;9453;50.294;18.644;2023-06-22T13:54:22;32.70;53.60
18648;DHT22;9453;50.294;18.644;2023-06-22T13:56:49;32.80;54.10
18648;DHT22;9453;50.294;18.644;2023-06-22T13:59:17;32.80;53.60
18648;DHT22;9453;50.294;18.644;2023-06-22T14:01:45;32.80;54.90
18648;DHT22;9453;50.294;18.644;2023-06-22T14:04:12;33.00;54.00
18648;DHT22;9453;50.294;18.644;2023-06-22T14:06:39;33.00;53.00
18648;DHT22;9453;50.294;18.644;2023-06-22T14:09:06;33.00;53.20
18648;DHT22;9453;50.294;18.644;2023-06-22T14:11:33;33.00;52.10
18648;DHT22;9453;50.294;18.644;2023-06-22T14:14:00;33.30;53.30
18648;DHT22;9453;50.294;18.644;2023-06-22T14:16:28;33.40;52.40
18648;DHT22;9453;50.294;18.644;2023-06-22T14:18:55;33.50;52.40
18648;DHT22;9453;50.294;18.644;2023-06-22T14:21:22;33.80;52.20
18648;DHT22;9453;50.294;18.644;2023-06-22T14:23:49;33.60;50.20
18648;DHT22;9453;50.294;18.644;2023-06-22T14:26:16;33.50;49.90
18648;DHT22;9453;50.294;18.644;2023-06-22T14:28:44;33.60;50.60
18648;DHT22;9453;50.294;18.644;2023-06-22T14:31:14;33.50;49.90
18648;DHT22;9453;50.294;18.644;2023-06-22T14:33:47;33.20;49.60
18648;DHT22;9453;50.294;18.644;2023-06-22T14:36:14;33.30;50.10
18648;DHT22;9453;50.294;18.644;2023-06-22T14:38:41;33.50;51.20
18648;DHT22;9453;50.294;18.644;2023-06-22T14:41:08;33.70;50.30
18648;DHT22;9453;50.294;18.644;2023-06-22T14:43:36;33.80;49.30
18648;DHT22;9453;50.294;18.644;2023-06-22T14:46:03;34.00;49.70
18648;DHT22;9453;50.294;18.644;2023-06-22T14:48:30;34.30;49.80
18648;DHT22;9453;50.294;18.644;2023-06-22T14:50:58;34.60;48.40
18648;DHT22;9453;50.294;18.644;2023-06-22T14:53:26;34.80;48.70
18648;DHT22;9453;50.294;18.644;2023-06-22T14:55:52;35.00;47.80
18648;DHT22;9453;50.294;18.644;2023-06-22T14:58:20;34.70;47.00
18648;DHT22;9453;50.294;18.644;2023-06-22T15:00:47;34.70;47.80
18648;DHT22;9453;50.294;18.644;2023-06-22T15:03:14;34.70;47.10
18648;DHT22;9453;50.294;18.644;2023-06-22T15:05:46;34.60;47.60
18648;DHT22;9453;50.294;18.644;2023-06-22T15:08:15;34.60;47.40
18648;DHT22;9453;50.294;18.644;2023-06-22T15:10:42;34.60;47.50
18648;DHT22;9453;50.294;18.644;2023-06-22T15:13:09;34.70;48.80
18648;DHT22;9453;50.294;18.644;2023-06-22T15:15:36;34.90;49.10
18648;DHT22;9453;50.294;18.644;2023-06-22T15:18:03;35.00;47.50
18648;DHT22;9453;50.294;18.644;2023-06-22T15:20:30;35.20;47.90
18648;DHT22;9453;50.294;18.644;2023-06-22T15:22:57;35.30;47.70
18648;DHT22;9453;50.294;18.644;2023-06-22T15:25:26;35.20;47.40
18648;DHT22;9453;50.294;18.644;2023-06-22T15:27:53;35.20;45.90
18648;DHT22;9453;50.294;18.644;2023-06-22T15:30:20;35.40;46.90
18648;DHT22;9453;50.294;18.644;2023-06-22T15:32:47;35.60;46.60
18648;DHT22;9453;50.294;18.644;2023-06-22T15:35:15;35.70;45.30
18648;DHT22;9453;50.294;18.644;2023-06-22T15:37:44;35.40;44.50
18648;DHT22;9453;50.294;18.644;2023-06-22T15:40:11;35.40;44.30
18648;DHT22;9453;50.294;18.644;2023-06-22T15:42:40;35.20;44.30
18648;DHT22;9453;50.294;18.644;2023-06-22T15:45:07;35.20;44.30
18648;DHT22;9453;50.294;18.644;2023-06-22T15:47:35;34.90;44.70
18648;DHT22;9453;50.294;18.644;2023-06-22T15:50:02;34.70;45.80
18648;DHT22;9453;50.294;18.644;2023-06-22T15:52:30;34.80;46.00
18648;DHT22;9453;50.294;18.644;2023-06-22T15:54:56;34.60;46.00
18648;DHT22;9453;50.294;18.644;2023-06-22T15:57:26;34.40;45.90
18648;DHT22;9453;50.294;18.644;2023-06-22T16:03:16;33.70;48.50
18648;DHT22;9453;50.294;18.644;2023-06-22T16:05:43;33.40;48.50
18648;DHT22;9453;50.294;18.644;2023-06-22T16:08:10;33.10;48.60
18648;DHT22;9453;50.294;18.644;2023-06-22T16:10:38;32.90;48.80
18648;DHT22;9453;50.294;18.644;2023-06-22T16:13:05;32.70;49.00
18648;DHT22;9453;50.294;18.644;2023-06-22T16:15:33;32.50;49.30
18648;DHT22;9453;50.294;18.644;2023-06-22T16:18:00;32.20;49.70
18648;DHT22;9453;50.294;18.644;2023-06-22T16:20:28;32.10;50.20
18648;DHT22;9453;50.294;18.644;2023-06-22T16:22:55;32.00;50.80
18648;DHT22;9453;50.294;18.644;2023-06-22T16:25:22;31.80;50.60
18648;DHT22;9453;50.294;18.644;2023-06-22T16:27:49;31.60;50.70
18648;DHT22;9453;50.294;18.644;2023-06-22T16:30:16;31.60;51.40
18648;DHT22;9453;50.294;18.644;2023-06-22T16:32:52;31.60;52.40
18648;DHT22;9453;50.294;18.644;2023-06-22T16:35:20;31.40;51.90
18648;DHT22;9453;50.294;18.644;2023-06-22T16:37:49;31.40;51.70
18648;DHT22;9453;50.294;18.644;2023-06-22T16:40:16;31.30;51.80
18648;DHT22;9453;50.294;18.644;2023-06-22T16:42:46;31.20;52.50
18648;DHT22;9453;50.294;18.644;2023-06-22T16:45:13;31.20;52.30
18648;DHT22;9453;50.294;18.644;2023-06-22T16:47:40;31.10;52.30
18648;DHT22;9453;50.294;18.644;2023-06-22T16:50:08;30.80;52.80
18648;DHT22;9453;50.294;18.644;2023-06-22T16:52:36;30.70;53.80
18648;DHT22;9453;50.294;18.644;2023-06-22T16:55:05;30.60;54.40
18648;DHT22;9453;50.294;18.644;2023-06-22T16:57:33;30.40;54.50
18648;DHT22;9453;50.294;18.644;2023-06-22T17:00:01;30.30;54.90
18648;DHT22;9453;50.294;18.644;2023-06-22T17:02:28;30.20;55.00
18648;DHT22;9453;50.294;18.644;2023-06-22T17:04:59;30.20;55.00
18648;DHT22;9453;50.294;18.644;2023-06-22T17:07:27;30.10;55.00
18648;DHT22;9453;50.294;18.644;2023-06-22T17:09:55;30.20;55.70
18648;DHT22;9453;50.294;18.644;2023-06-22T17:12:25;30.70;54.90
18648;DHT22;9453;50.294;18.644;2023-06-22T17:14:53;30.50;55.00
18648;DHT22;9453;50.294;18.644;2023-06-22T17:17:20;30.50;54.70
18648;DHT22;9453;50.294;18.644;2023-06-22T17:19:51;30.40;54.50
18648;DHT22;9453;50.294;18.644;2023-06-22T17:22:17;30.30;54.50
18648;DHT22;9453;50.294;18.644;2023-06-22T17:24:45;30.10;54.30
18648;DHT22;9453;50.294;18.644;2023-06-22T17:27:12;30.00;55.00
18648;DHT22;9453;50.294;18.644;2023-06-22T17:29:41;29.90;55.40
18648;DHT22;9453;50.294;18.644;2023-06-22T17:32:08;29.70;55.90
18648;DHT22;9453;50.294;18.644;2023-06-22T17:34:35;29.70;56.40
18648;DHT22;9453;50.294;18.644;2023-06-22T17:37:02;29.60;56.30
18648;DHT22;9453;50.294;18.644;2023-06-22T17:39:29;29.50;56.50
18648;DHT22;9453;50.294;18.644;2023-06-22T17:41:56;29.40;57.00
18648;DHT22;9453;50.294;18.644;2023-06-22T17:44:25;29.40;57.60
18648;DHT22;9453;50.294;18.644;2023-06-22T17:46:55;29.30;58.10
18648;DHT22;9453;50.294;18.644;2023-06-22T17:49:27;29.20;58.20
18648;DHT22;9453;50.294;18.644;2023-06-22T17:51:54;29.20;59.00
18648;DHT22;9453;50.294;18.644;2023-06-22T17:54:22;29.10;59.50
18648;DHT22;9453;50.294;18.644;2023-06-22T17:56:49;29.00;58.90
18648;DHT22;9453;50.294;18.644;2023-06-22T17:59:18;28.90;58.80
18648;DHT22;9453;50.294;18.644;2023-06-22T18:01:46;28.80;58.60
18648;DHT22;9453;50.294;18.644;2023-06-22T18:04:17;28.80;59.40
18648;DHT22;9453;50.294;18.644;2023-06-22T18:06:46;28.70;59.70
18648;DHT22;9453;50.294;18.644;2023-06-22T18:09:15;28.60;60.00
18648;DHT22;9453;50.294;18.644;2023-06-22T18:11:44;28.50;59.90
18648;DHT22;9453;50.294;18.644;2023-06-22T18:14:14;28.40;59.80
18648;DHT22;9453;50.294;18.644;2023-06-22T18:16:43;28.30;60.60
18648;DHT22;9453;50.294;18.644;2023-06-22T18:19:12;28.30;60.90
18648;DHT22;9453;50.294;18.644;2023-06-22T18:21:45;28.10;60.90
18648;DHT22;9453;50.294;18.644;2023-06-22T18:24:14;28.00;61.30
18648;DHT22;9453;50.294;18.644;2023-06-22T18:26:43;28.00;62.10
18648;DHT22;9453;50.294;18.644;2023-06-22T18:29:10;27.90;62.40
18648;DHT22;9453;50.294;18.644;2023-06-22T18:31:38;27.80;63.10
18648;DHT22;9453;50.294;18.644;2023-06-22T18:34:07;27.70;63.70
18648;DHT22;9453;50.294;18.644;2023-06-22T18:36:38;27.60;64.30
18648;DHT22;9453;50.294;18.644;2023-06-22T18:39:09;27.50;65.10
18648;DHT22;9453;50.294;18.644;2023-06-22T18:41:38;27.40;65.80
18648;DHT22;9453;50.294;18.644;2023-06-22T18:44:11;27.30;66.60
18648;DHT22;9453;50.294;18.644;2023-06-22T18:46:39;27.20;66.80
18648;DHT22;9453;50.294;18.644;2023-06-22T18:49:12;27.10;67.30
18648;DHT22;9453;50.294;18.644;2023-06-22T18:51:53;27.10;67.90
18648;DHT22;9453;50.294;18.644;2023-06-22T18:54:32;27.00;68.30
18648;DHT22;9453;50.294;18.644;2023-06-22T18:57:00;26.90;68.70
18648;DHT22;9453;50.294;18.644;2023-06-22T18:59:41;26.80;68.80
18648;DHT22;9453;50.294;18.644;2023-06-22T19:02:09;26.80;69.40
18648;DHT22;9453;50.294;18.644;2023-06-22T19:04:37;26.70;69.70
18648;DHT22;9453;50.294;18.644;2023-06-22T19:07:05;26.60;70.10
18648;DHT22;9453;50.294;18.644;2023-06-22T19:09:35;26.50;70.50
18648;DHT22;9453;50.294;18.644;2023-06-22T19:12:19;26.50;70.80
18648;DHT22;9453;50.294;18.644;2023-06-22T19:15:08;26.40;71.30
18648;DHT22;9453;50.294;18.644;2023-06-22T19:17:37;26.30;71.60
18648;DHT22;9453;50.294;18.644;2023-06-22T19:20:05;26.20;71.80
18648;DHT22;9453;50.294;18.644;2023-06-22T19:23:03;26.20;72.10
18648;DHT22;9453;50.294;18.644;2023-06-22T19:25:32;26.10;72.50
18648;DHT22;9453;50.294;18.644;2023-06-22T19:28:00;26.00;72.70
18648;DHT22;9453;50.294;18.644;2023-06-22T19:30:28;26.00;73.00
18648;DHT22;9453;50.294;18.644;2023-06-22T19:32:56;25.90;73.30
18648;DHT22;9453;50.294;18.644;2023-06-22T19:35:24;25.90;73.30
18648;DHT22;9453;50.294;18.644;2023-06-22T19:37:52;25.80;73.20
18648;DHT22;9453;50.294;18.644;2023-06-22T19:40:19;25.80;73.20
18648;DHT22;9453;50.294;18.644;2023-06-22T19:42:53;25.80;73.60
18648;DHT22;9453;50.294;18.644;2023-06-22T19:45:21;25.70;73.70